sensor_id;sensor_type;location;lat;lon;timestamp;P1;durP1;ratioP1;P2;durP2;ratioP2
55435;SDS011;41307;53.142;6.430;2023-07-13T00:00:25;3.40;;;1.02;;
55435;SDS011;41307;53.142;6.430;2023-07-13T00:02:51;2.28;;;0.70;;
55435;SDS011;41307;53.142;6.430;2023-07-13T00:05:21;1.77;;;0.80;;
55435;SDS011;41307;53.142;6.430;2023-07-13T00:07:47;3.22;;;0.80;;
55435;SDS011;41307;53.142;6.430;2023-07-13T00:10:14;0.82;;;0.60;;
55435;SDS011;41307;53.142;6.430;2023-07-13T00:12:40;2.28;;;0.70;;
55435;SDS011;41307;53.142;6.430;2023-07-13T00:15:09;3.85;;;0.55;;
55435;SDS011;41307;53.142;6.430;2023-07-13T00:17:41;3.95;;;0.50;;
55435;SDS011;41307;53.142;6.430;2023-07-13T00:20:09;2.97;;;0.75;;
55435;SDS011;41307;53.142;6.430;2023-07-13T00:22:36;3.03;;;0.82;;
55435;SDS011;41307;53.142;6.430;2023-07-13T00:25:02;1.23;;;0.60;;
55435;SDS011;41307;53.142;6.430;2023-07-13T00:27:28;3.70;;;1.05;;
55435;SDS011;41307;53.142;6.430;2023-07-13T00:29:56;3.45;;;0.60;;
55435;SDS011;41307;53.142;6.430;2023-07-13T00:32:22;3.88;;;0.90;;
55435;SDS011;41307;53.142;6.430;2023-07-13T00:34:50;4.30;;;0.98;;
55435;SDS011;41307;53.142;6.430;2023-07-13T00:37:17;2.25;;;0.65;;
55435;SDS011;41307;53.142;6.430;2023-07-13T00:39:42;3.03;;;0.77;;
55435;SDS011;41307;53.142;6.430;2023-07-13T00:42:08;3.97;;;1.15;;
55435;SDS011;41307;53.142;6.430;2023-07-13T00:44:34;3.78;;;0.90;;
55435;SDS011;41307;53.142;6.430;2023-07-13T00:47:00;2.65;;;0.95;;
55435;SDS011;41307;53.142;6.430;2023-07-13T00:49:27;1.90;;;0.63;;
55435;SDS011;41307;53.142;6.430;2023-07-13T00:51:57;2.47;;;1.00;;
55435;SDS011;41307;53.142;6.430;2023-07-13T00:54:32;3.72;;;1.20;;
55435;SDS011;41307;53.142;6.430;2023-07-13T00:57:02;2.13;;;0.88;;
55435;SDS011;41307;53.142;6.430;2023-07-13T00:59:31;3.50;;;0.73;;
55435;SDS011;41307;53.142;6.430;2023-07-13T01:02:00;3.05;;;0.68;;
55435;SDS011;41307;53.142;6.430;2023-07-13T01:04:27;2.53;;;0.70;;
55435;SDS011;41307;53.142;6.430;2023-07-13T01:06:53;3.00;;;0.88;;
55435;SDS011;41307;53.142;6.430;2023-07-13T01:09:19;3.42;;;1.35;;
55435;SDS011;41307;53.142;6.430;2023-07-13T01:11:46;3.92;;;1.05;;
55435;SDS011;41307;53.142;6.430;2023-07-13T01:14:13;2.97;;;0.73;;
55435;SDS011;41307;53.142;6.430;2023-07-13T01:16:39;1.65;;;0.80;;
55435;SDS011;41307;53.142;6.430;2023-07-13T01:19:11;4.25;;;1.17;;
55435;SDS011;41307;53.142;6.430;2023-07-13T01:22:12;4.22;;;0.93;;
55435;SDS011;41307;53.142;6.430;2023-07-13T01:24:43;1.83;;;0.85;;
55435;SDS011;41307;53.142;6.430;2023-07-13T01:27:12;1.58;;;0.77;;
55435;SDS011;41307;53.142;6.430;2023-07-13T01:29:41;4.97;;;0.90;;
55435;SDS011;41307;53.142;6.430;2023-07-13T01:32:22;4.03;;;0.70;;
55435;SDS011;41307;53.142;6.430;2023-07-13T01:34:52;2.83;;;0.82;;
55435;SDS011;41307;53.142;6.430;2023-07-13T01:37:22;3.78;;;0.93;;
55435;SDS011;41307;53.142;6.430;2023-07-13T01:39:49;4.13;;;1.00;;
55435;SDS011;41307;53.142;6.430;2023-07-13T01:42:15;3.72;;;0.95;;
55435;SDS011;41307;53.142;6.430;2023-07-13T01:44:41;1.50;;;0.70;;
55435;SDS011;41307;53.142;6.430;2023-07-13T01:47:07;2.08;;;0.60;;
55435;SDS011;41307;53.142;6.430;2023-07-13T01:49:32;3.25;;;0.80;;
55435;SDS011;41307;53.142;6.430;2023-07-13T01:51:58;2.00;;;0.80;;
55435;SDS011;41307;53.142;6.430;2023-07-13T01:54:24;5.38;;;0.95;;
55435;SDS011;41307;53.142;6.430;2023-07-13T01:56:49;1.70;;;0.88;;
55435;SDS011;41307;53.142;6.430;2023-07-13T01:59:15;2.40;;;0.63;;
55435;SDS011;41307;53.142;6.430;2023-07-13T02:01:41;1.55;;;0.73;;
55435;SDS011;41307;53.142;6.430;2023-07-13T02:04:07;1.48;;;0.60;;
55435;SDS011;41307;53.142;6.430;2023-07-13T02:06:32;2.30;;;0.90;;
55435;SDS011;41307;53.142;6.430;2023-07-13T02:08:58;1.20;;;0.60;;
55435;SDS011;41307;53.142;6.430;2023-07-13T02:11:24;3.13;;;0.75;;
55435;SDS011;41307;53.142;6.430;2023-07-13T02:13:51;3.97;;;1.05;;
55435;SDS011;41307;53.142;6.430;2023-07-13T02:16:17;2.78;;;0.50;;
55435;SDS011;41307;53.142;6.430;2023-07-13T02:18:43;3.78;;;0.82;;
55435;SDS011;41307;53.142;6.430;2023-07-13T02:21:08;3.65;;;0.70;;
55435;SDS011;41307;53.142;6.430;2023-07-13T02:23:34;2.50;;;0.80;;
55435;SDS011;41307;53.142;6.430;2023-07-13T02:26:01;2.22;;;1.25;;
55435;SDS011;41307;53.142;6.430;2023-07-13T02:28:28;1.08;;;0.55;;
55435;SDS011;41307;53.142;6.430;2023-07-13T02:30:54;4.68;;;0.90;;
55435;SDS011;41307;53.142;6.430;2023-07-13T02:33:20;1.70;;;0.60;;
55435;SDS011;41307;53.142;6.430;2023-07-13T02:35:45;5.85;;;0.98;;
55435;SDS011;41307;53.142;6.430;2023-07-13T02:38:11;2.92;;;0.88;;
55435;SDS011;41307;53.142;6.430;2023-07-13T02:40:37;1.10;;;0.60;;
55435;SDS011;41307;53.142;6.430;2023-07-13T02:43:03;1.77;;;0.80;;
55435;SDS011;41307;53.142;6.430;2023-07-13T02:45:29;2.00;;;1.08;;
55435;SDS011;41307;53.142;6.430;2023-07-13T02:47:54;1.23;;;0.80;;
55435;SDS011;41307;53.142;6.430;2023-07-13T02:50:20;2.58;;;0.88;;
55435;SDS011;41307;53.142;6.430;2023-07-13T02:52:46;3.40;;;1.00;;
55435;SDS011;41307;53.142;6.430;2023-07-13T02:55:12;5.35;;;1.10;;
55435;SDS011;41307;53.142;6.430;2023-07-13T02:57:38;2.22;;;0.82;;
55435;SDS011;41307;53.142;6.430;2023-07-13T03:00:03;4.47;;;1.10;;
55435;SDS011;41307;53.142;6.430;2023-07-13T03:02:31;2.08;;;1.15;;
55435;SDS011;41307;53.142;6.430;2023-07-13T03:04:57;4.50;;;0.93;;
55435;SDS011;41307;53.142;6.430;2023-07-13T03:07:23;3.63;;;1.15;;
55435;SDS011;41307;53.142;6.430;2023-07-13T03:09:53;3.30;;;1.20;;
55435;SDS011;41307;53.142;6.430;2023-07-13T03:12:23;7.60;;;1.50;;
55435;SDS011;41307;53.142;6.430;2023-07-13T03:14:49;3.58;;;1.30;;
55435;SDS011;41307;53.142;6.430;2023-07-13T03:17:15;2.33;;;1.05;;
55435;SDS011;41307;53.142;6.430;2023-07-13T03:19:41;2.47;;;0.98;;
55435;SDS011;41307;53.142;6.430;2023-07-13T03:22:06;3.40;;;0.95;;
55435;SDS011;41307;53.142;6.430;2023-07-13T03:24:33;4.55;;;1.35;;
55435;SDS011;41307;53.142;6.430;2023-07-13T03:27:01;1.55;;;0.77;;
55435;SDS011;41307;53.142;6.430;2023-07-13T03:29:27;1.83;;;0.95;;
55435;SDS011;41307;53.142;6.430;2023-07-13T03:31:53;2.00;;;0.73;;
55435;SDS011;41307;53.142;6.430;2023-07-13T03:34:18;1.80;;;0.82;;
55435;SDS011;41307;53.142;6.430;2023-07-13T03:36:44;3.22;;;1.00;;
55435;SDS011;41307;53.142;6.430;2023-07-13T03:39:10;3.20;;;0.80;;
55435;SDS011;41307;53.142;6.430;2023-07-13T03:41:36;2.70;;;1.00;;
55435;SDS011;41307;53.142;6.430;2023-07-13T03:44:02;2.45;;;0.77;;
55435;SDS011;41307;53.142;6.430;2023-07-13T03:46:28;3.25;;;0.90;;
55435;SDS011;41307;53.142;6.430;2023-07-13T03:48:54;5.68;;;1.10;;
55435;SDS011;41307;53.142;6.430;2023-07-13T03:51:21;4.72;;;1.00;;
55435;SDS011;41307;53.142;6.430;2023-07-13T03:53:47;5.55;;;1.02;;
55435;SDS011;41307;53.142;6.430;2023-07-13T03:56:13;2.97;;;1.20;;
55435;SDS011;41307;53.142;6.430;2023-07-13T03:58:41;2.63;;;0.70;;
55435;SDS011;41307;53.142;6.430;2023-07-13T04:01:08;3.25;;;0.80;;
55435;SDS011;41307;53.142;6.430;2023-07-13T04:03:35;3.75;;;0.73;;
55435;SDS011;41307;53.142;6.430;2023-07-13T04:06:02;2.38;;;1.05;;
55435;SDS011;41307;53.142;6.430;2023-07-13T04:08:30;2.58;;;1.02;;
55435;SDS011;41307;53.142;6.430;2023-07-13T04:10:58;2.75;;;0.93;;
55435;SDS011;41307;53.142;6.430;2023-07-13T04:13:24;2.75;;;0.70;;
55435;SDS011;41307;53.142;6.430;2023-07-13T04:15:50;3.20;;;0.90;;
55435;SDS011;41307;53.142;6.430;2023-07-13T04:18:17;2.53;;;1.17;;
55435;SDS011;41307;53.142;6.430;2023-07-13T04:20:43;3.10;;;1.08;;
55435;SDS011;41307;53.142;6.430;2023-07-13T04:23:09;3.92;;;0.95;;
55435;SDS011;41307;53.142;6.430;2023-07-13T04:25:34;2.95;;;1.15;;
55435;SDS011;41307;53.142;6.430;2023-07-13T04:28:00;4.35;;;1.00;;
55435;SDS011;41307;53.142;6.430;2023-07-13T04:30:26;3.88;;;0.88;;
55435;SDS011;41307;53.142;6.430;2023-07-13T04:32:52;3.05;;;1.02;;
55435;SDS011;41307;53.142;6.430;2023-07-13T04:35:21;3.20;;;1.00;;
55435;SDS011;41307;53.142;6.430;2023-07-13T04:37:50;4.13;;;0.80;;
55435;SDS011;41307;53.142;6.430;2023-07-13T04:40:17;5.72;;;1.23;;
55435;SDS011;41307;53.142;6.430;2023-07-13T04:42:43;5.45;;;1.00;;
55435;SDS011;41307;53.142;6.430;2023-07-13T04:45:10;2.38;;;0.93;;
55435;SDS011;41307;53.142;6.430;2023-07-13T04:47:36;2.47;;;0.75;;
55435;SDS011;41307;53.142;6.430;2023-07-13T04:50:02;2.55;;;0.90;;
55435;SDS011;41307;53.142;6.430;2023-07-13T04:52:28;3.78;;;1.13;;
55435;SDS011;41307;53.142;6.430;2023-07-13T04:54:54;3.42;;;1.52;;
55435;SDS011;41307;53.142;6.430;2023-07-13T04:57:19;2.45;;;0.70;;
55435;SDS011;41307;53.142;6.430;2023-07-13T04:59:45;2.63;;;1.05;;
55435;SDS011;41307;53.142;6.430;2023-07-13T05:02:11;3.05;;;0.93;;
55435;SDS011;41307;53.142;6.430;2023-07-13T05:04:36;3.33;;;0.98;;
55435;SDS011;41307;53.142;6.430;2023-07-13T05:07:02;2.13;;;0.70;;
55435;SDS011;41307;53.142;6.430;2023-07-13T05:09:28;2.63;;;1.40;;
55435;SDS011;41307;53.142;6.430;2023-07-13T05:11:54;2.60;;;0.85;;
55435;SDS011;41307;53.142;6.430;2023-07-13T05:14:19;3.20;;;1.02;;
55435;SDS011;41307;53.142;6.430;2023-07-13T05:16:45;3.38;;;0.80;;
55435;SDS011;41307;53.142;6.430;2023-07-13T05:19:11;4.28;;;1.05;;
55435;SDS011;41307;53.142;6.430;2023-07-13T05:21:37;3.17;;;1.17;;
55435;SDS011;41307;53.142;6.430;2023-07-13T05:24:03;1.67;;;0.70;;
55435;SDS011;41307;53.142;6.430;2023-07-13T05:26:29;2.65;;;0.90;;
55435;SDS011;41307;53.142;6.430;2023-07-13T05:28:54;4.07;;;0.90;;
55435;SDS011;41307;53.142;6.430;2023-07-13T05:31:20;1.42;;;0.43;;
55435;SDS011;41307;53.142;6.430;2023-07-13T05:33:46;2.45;;;0.93;;
55435;SDS011;41307;53.142;6.430;2023-07-13T05:36:11;2.63;;;0.50;;
55435;SDS011;41307;53.142;6.430;2023-07-13T05:38:37;1.25;;;0.47;;
55435;SDS011;41307;53.142;6.430;2023-07-13T05:41:03;1.23;;;0.65;;
55435;SDS011;41307;53.142;6.430;2023-07-13T05:43:29;0.82;;;0.35;;
55435;SDS011;41307;53.142;6.430;2023-07-13T05:45:55;4.40;;;0.50;;
55435;SDS011;41307;53.142;6.430;2023-07-13T05:48:21;3.30;;;0.85;;
55435;SDS011;41307;53.142;6.430;2023-07-13T05:50:47;4.93;;;1.00;;
55435;SDS011;41307;53.142;6.430;2023-07-13T05:53:14;1.58;;;0.50;;
55435;SDS011;41307;53.142;6.430;2023-07-13T05:55:43;2.05;;;0.75;;
55435;SDS011;41307;53.142;6.430;2023-07-13T05:58:12;3.85;;;0.60;;
55435;SDS011;41307;53.142;6.430;2023-07-13T06:00:39;1.10;;;0.50;;
55435;SDS011;41307;53.142;6.430;2023-07-13T06:03:05;2.17;;;0.70;;
55435;SDS011;41307;53.142;6.430;2023-07-13T06:05:32;1.35;;;0.40;;
55435;SDS011;41307;53.142;6.430;2023-07-13T06:07:59;1.77;;;0.40;;
55435;SDS011;41307;53.142;6.430;2023-07-13T06:10:25;2.35;;;0.63;;
55435;SDS011;41307;53.142;6.430;2023-07-13T06:12:51;1.75;;;0.50;;
55435;SDS011;41307;53.142;6.430;2023-07-13T06:15:17;3.58;;;0.73;;
55435;SDS011;41307;53.142;6.430;2023-07-13T06:17:43;1.17;;;0.52;;
55435;SDS011;41307;53.142;6.430;2023-07-13T06:20:09;1.55;;;0.30;;
55435;SDS011;41307;53.142;6.430;2023-07-13T06:22:35;0.90;;;0.32;;
55435;SDS011;41307;53.142;6.430;2023-07-13T06:25:00;3.28;;;0.50;;
55435;SDS011;41307;53.142;6.430;2023-07-13T06:27:26;1.98;;;0.45;;
55435;SDS011;41307;53.142;6.430;2023-07-13T06:29:52;1.48;;;0.43;;
55435;SDS011;41307;53.142;6.430;2023-07-13T06:32:18;1.25;;;0.30;;
55435;SDS011;41307;53.142;6.430;2023-07-13T06:34:44;2.47;;;0.50;;
55435;SDS011;41307;53.142;6.430;2023-07-13T06:37:10;1.50;;;0.80;;
55435;SDS011;41307;53.142;6.430;2023-07-13T06:39:35;1.23;;;0.40;;
55435;SDS011;41307;53.142;6.430;2023-07-13T06:42:01;0.90;;;0.50;;
55435;SDS011;41307;53.142;6.430;2023-07-13T06:44:27;1.33;;;0.47;;
55435;SDS011;41307;53.142;6.430;2023-07-13T06:46:53;3.25;;;0.47;;
55435;SDS011;41307;53.142;6.430;2023-07-13T06:49:19;1.05;;;0.40;;
55435;SDS011;41307;53.142;6.430;2023-07-13T06:51:45;1.05;;;0.30;;
55435;SDS011;41307;53.142;6.430;2023-07-13T06:54:11;1.60;;;0.43;;
55435;SDS011;41307;53.142;6.430;2023-07-13T06:56:37;1.17;;;0.30;;
55435;SDS011;41307;53.142;6.430;2023-07-13T06:59:02;1.35;;;0.32;;
55435;SDS011;41307;53.142;6.430;2023-07-13T07:01:28;0.85;;;0.30;;
55435;SDS011;41307;53.142;6.430;2023-07-13T07:03:54;1.45;;;0.35;;
55435;SDS011;41307;53.142;6.430;2023-07-13T07:06:20;1.35;;;0.60;;
55435;SDS011;41307;53.142;6.430;2023-07-13T07:08:50;1.23;;;0.30;;
55435;SDS011;41307;53.142;6.430;2023-07-13T07:11:18;1.63;;;0.38;;
55435;SDS011;41307;53.142;6.430;2023-07-13T07:13:47;1.88;;;0.40;;
55435;SDS011;41307;53.142;6.430;2023-07-13T07:16:13;3.08;;;0.50;;
55435;SDS011;41307;53.142;6.430;2023-07-13T07:18:39;1.95;;;0.52;;
55435;SDS011;41307;53.142;6.430;2023-07-13T07:21:05;1.40;;;0.50;;
55435;SDS011;41307;53.142;6.430;2023-07-13T07:23:31;3.10;;;0.90;;
55435;SDS011;41307;53.142;6.430;2023-07-13T07:25:57;2.25;;;0.55;;
55435;SDS011;41307;53.142;6.430;2023-07-13T07:28:23;2.97;;;0.50;;
55435;SDS011;41307;53.142;6.430;2023-07-13T07:30:49;0.80;;;0.50;;
55435;SDS011;41307;53.142;6.430;2023-07-13T07:33:18;0.40;;;0.30;;
55435;SDS011;41307;53.142;6.430;2023-07-13T07:35:44;2.78;;;0.40;;
55435;SDS011;41307;53.142;6.430;2023-07-13T07:38:09;0.63;;;0.43;;
55435;SDS011;41307;53.142;6.430;2023-07-13T07:40:39;1.48;;;0.50;;
55435;SDS011;41307;53.142;6.430;2023-07-13T07:43:06;2.05;;;0.43;;
55435;SDS011;41307;53.142;6.430;2023-07-13T07:45:34;1.35;;;0.50;;
55435;SDS011;41307;53.142;6.430;2023-07-13T07:48:00;2.35;;;0.70;;
55435;SDS011;41307;53.142;6.430;2023-07-13T07:50:26;1.38;;;0.60;;
55435;SDS011;41307;53.142;6.430;2023-07-13T07:52:53;1.27;;;0.47;;
55435;SDS011;41307;53.142;6.430;2023-07-13T07:55:21;0.85;;;0.32;;
55435;SDS011;41307;53.142;6.430;2023-07-13T07:57:47;0.77;;;0.30;;
55435;SDS011;41307;53.142;6.430;2023-07-13T08:00:14;1.27;;;0.40;;
55435;SDS011;41307;53.142;6.430;2023-07-13T08:02:41;0.82;;;0.30;;
55435;SDS011;41307;53.142;6.430;2023-07-13T08:05:08;0.63;;;0.30;;
55435;SDS011;41307;53.142;6.430;2023-07-13T08:07:34;0.70;;;0.30;;
55435;SDS011;41307;53.142;6.430;2023-07-13T08:10:00;1.42;;;0.35;;
55435;SDS011;41307;53.142;6.430;2023-07-13T08:12:26;0.80;;;0.32;;
55435;SDS011;41307;53.142;6.430;2023-07-13T08:14:52;1.17;;;0.30;;
55435;SDS011;41307;53.142;6.430;2023-07-13T08:17:25;0.75;;;0.28;;
55435;SDS011;41307;53.142;6.430;2023-07-13T08:19:51;1.98;;;0.30;;
55435;SDS011;41307;53.142;6.430;2023-07-13T08:22:17;1.40;;;0.50;;
55435;SDS011;41307;53.142;6.430;2023-07-13T08:24:43;0.95;;;0.35;;
55435;SDS011;41307;53.142;6.430;2023-07-13T08:27:10;1.10;;;0.40;;
55435;SDS011;41307;53.142;6.430;2023-07-13T08:29:39;1.67;;;0.40;;
55435;SDS011;41307;53.142;6.430;2023-07-13T08:32:05;1.70;;;0.50;;
55435;SDS011;41307;53.142;6.430;2023-07-13T08:34:34;1.33;;;0.40;;
55435;SDS011;41307;53.142;6.430;2023-07-13T08:37:01;1.85;;;0.60;;
55435;SDS011;41307;53.142;6.430;2023-07-13T08:39:28;1.48;;;0.40;;
55435;SDS011;41307;53.142;6.430;2023-07-13T08:41:56;0.77;;;0.45;;
55435;SDS011;41307;53.142;6.430;2023-07-13T08:47:28;1.02;;;0.28;;
55435;SDS011;41307;53.142;6.430;2023-07-13T08:49:55;0.40;;;0.20;;
55435;SDS011;41307;53.142;6.430;2023-07-13T08:52:35;1.63;;;0.28;;
55435;SDS011;41307;53.142;6.430;2023-07-13T08:55:15;0.80;;;0.40;;
55435;SDS011;41307;53.142;6.430;2023-07-13T08:57:44;1.13;;;0.40;;
55435;SDS011;41307;53.142;6.430;2023-07-13T09:00:13;2.05;;;0.35;;
55435;SDS011;41307;53.142;6.430;2023-07-13T09:02:45;0.68;;;0.30;;
55435;SDS011;41307;53.142;6.430;2023-07-13T09:05:20;0.70;;;0.30;;
55435;SDS011;41307;53.142;6.430;2023-07-13T09:07:58;1.92;;;0.35;;
55435;SDS011;41307;53.142;6.430;2023-07-13T09:10:46;0.50;;;0.35;;
55435;SDS011;41307;53.142;6.430;2023-07-13T09:16:12;0.88;;;0.20;;
55435;SDS011;41307;53.142;6.430;2023-07-13T09:18:41;0.50;;;0.20;;
55435;SDS011;41307;53.142;6.430;2023-07-13T09:21:12;1.13;;;0.30;;
55435;SDS011;41307;53.142;6.430;2023-07-13T09:26:43;0.82;;;0.40;;
55435;SDS011;41307;53.142;6.430;2023-07-13T09:29:12;1.05;;;0.40;;
55435;SDS011;41307;53.142;6.430;2023-07-13T09:31:43;0.80;;;0.30;;
55435;SDS011;41307;53.142;6.430;2023-07-13T09:34:14;1.17;;;0.50;;
55435;SDS011;41307;53.142;6.430;2023-07-13T09:36:40;1.55;;;0.60;;
55435;SDS011;41307;53.142;6.430;2023-07-13T09:39:21;1.80;;;0.43;;
55435;SDS011;41307;53.142;6.430;2023-07-13T09:44:55;1.70;;;0.50;;
55435;SDS011;41307;53.142;6.430;2023-07-13T09:47:27;0.73;;;0.40;;
55435;SDS011;41307;53.142;6.430;2023-07-13T09:50:04;0.65;;;0.30;;
55435;SDS011;41307;53.142;6.430;2023-07-13T09:52:43;1.80;;;0.50;;
55435;SDS011;41307;53.142;6.430;2023-07-13T09:57:56;0.60;;;0.40;;
55435;SDS011;41307;53.142;6.430;2023-07-13T10:00:25;0.55;;;0.40;;
55435;SDS011;41307;53.142;6.430;2023-07-13T10:03:00;0.77;;;0.35;;
55435;SDS011;41307;53.142;6.430;2023-07-13T10:05:43;2.85;;;0.50;;
55435;SDS011;41307;53.142;6.430;2023-07-13T10:08:24;1.48;;;0.60;;
55435;SDS011;41307;53.142;6.430;2023-07-13T10:11:09;0.52;;;0.30;;
55435;SDS011;41307;53.142;6.430;2023-07-13T10:13:50;0.63;;;0.30;;
55435;SDS011;41307;53.142;6.430;2023-07-13T10:16:23;1.10;;;0.30;;
55435;SDS011;41307;53.142;6.430;2023-07-13T10:19:02;1.55;;;0.35;;
55435;SDS011;41307;53.142;6.430;2023-07-13T10:21:39;1.00;;;0.30;;
55435;SDS011;41307;53.142;6.430;2023-07-13T10:24:15;0.32;;;0.20;;
55435;SDS011;41307;53.142;6.430;2023-07-13T10:26:56;1.50;;;0.30;;
55435;SDS011;41307;53.142;6.430;2023-07-13T10:29:30;0.95;;;0.30;;
55435;SDS011;41307;53.142;6.430;2023-07-13T10:32:01;3.15;;;0.45;;
55435;SDS011;41307;53.142;6.430;2023-07-13T10:34:27;1.00;;;0.47;;
55435;SDS011;41307;53.142;6.430;2023-07-13T10:36:53;0.43;;;0.20;;
55435;SDS011;41307;53.142;6.430;2023-07-13T10:39:20;1.20;;;0.20;;
55435;SDS011;41307;53.142;6.430;2023-07-13T10:41:50;0.93;;;0.30;;
55435;SDS011;41307;53.142;6.430;2023-07-13T10:44:26;0.63;;;0.30;;
55435;SDS011;41307;53.142;6.430;2023-07-13T10:46:55;1.15;;;0.20;;
55435;SDS011;41307;53.142;6.430;2023-07-13T10:49:26;1.25;;;0.30;;
55435;SDS011;41307;53.142;6.430;2023-07-13T10:51:54;0.22;;;0.20;;
55435;SDS011;41307;53.142;6.430;2023-07-13T10:54:21;0.52;;;0.22;;
55435;SDS011;41307;53.142;6.430;2023-07-13T10:57:33;0.75;;;0.30;;
55435;SDS011;41307;53.142;6.430;2023-07-13T11:04:55;1.35;;;0.52;;
55435;SDS011;41307;53.142;6.430;2023-07-13T11:07:26;0.40;;;0.30;;
55435;SDS011;41307;53.142;6.430;2023-07-13T11:09:55;0.85;;;0.20;;
55435;SDS011;41307;53.142;6.430;2023-07-13T11:17:24;0.50;;;0.17;;
55435;SDS011;41307;53.142;6.430;2023-07-13T11:19:53;0.73;;;0.30;;
55435;SDS011;41307;53.142;6.430;2023-07-13T11:22:41;0.50;;;0.20;;
55435;SDS011;41307;53.142;6.430;2023-07-13T11:25:31;0.63;;;0.20;;
55435;SDS011;41307;53.142;6.430;2023-07-13T11:31:19;0.80;;;0.30;;
55435;SDS011;41307;53.142;6.430;2023-07-13T11:36:06;0.30;;;0.17;;
55435;SDS011;41307;53.142;6.430;2023-07-13T11:38:39;0.77;;;0.40;;
55435;SDS011;41307;53.142;6.430;2023-07-13T11:41:15;1.20;;;0.30;;
55435;SDS011;41307;53.142;6.430;2023-07-13T11:43:47;1.27;;;0.40;;
55435;SDS011;41307;53.142;6.430;2023-07-13T11:46:15;0.65;;;0.30;;
55435;SDS011;41307;53.142;6.430;2023-07-13T11:48:49;0.75;;;0.32;;
55435;SDS011;41307;53.142;6.430;2023-07-13T11:51:26;0.28;;;0.15;;
55435;SDS011;41307;53.142;6.430;2023-07-13T11:53:53;1.45;;;0.50;;
55435;SDS011;41307;53.142;6.430;2023-07-13T11:56:22;1.25;;;0.30;;
55435;SDS011;41307;53.142;6.430;2023-07-13T11:58:50;3.40;;;0.30;;
55435;SDS011;41307;53.142;6.430;2023-07-13T12:01:22;0.63;;;0.38;;
55435;SDS011;41307;53.142;6.430;2023-07-13T12:03:58;1.63;;;0.55;;
55435;SDS011;41307;53.142;6.430;2023-07-13T12:06:30;0.32;;;0.20;;
55435;SDS011;41307;53.142;6.430;2023-07-13T12:09:12;1.70;;;0.20;;
55435;SDS011;41307;53.142;6.430;2023-07-13T12:11:42;0.60;;;0.28;;
55435;SDS011;41307;53.142;6.430;2023-07-13T12:14:13;1.27;;;0.32;;
55435;SDS011;41307;53.142;6.430;2023-07-13T12:16:43;1.02;;;0.40;;
55435;SDS011;41307;53.142;6.430;2023-07-13T12:19:17;0.40;;;0.35;;
55435;SDS011;41307;53.142;6.430;2023-07-13T12:21:48;3.90;;;0.30;;
55435;SDS011;41307;53.142;6.430;2023-07-13T12:24:19;0.50;;;0.40;;
55435;SDS011;41307;53.142;6.430;2023-07-13T12:27:01;0.60;;;0.25;;
55435;SDS011;41307;53.142;6.430;2023-07-13T12:29:29;0.55;;;0.20;;
55435;SDS011;41307;53.142;6.430;2023-07-13T12:31:56;0.32;;;0.20;;
55435;SDS011;41307;53.142;6.430;2023-07-13T12:34:23;0.52;;;0.22;;
55435;SDS011;41307;53.142;6.430;2023-07-13T12:36:55;1.33;;;0.40;;
55435;SDS011;41307;53.142;6.430;2023-07-13T12:42:22;0.93;;;0.40;;
55435;SDS011;41307;53.142;6.430;2023-07-13T12:45:03;0.38;;;0.20;;
55435;SDS011;41307;53.142;6.430;2023-07-13T12:47:47;0.55;;;0.28;;
55435;SDS011;41307;53.142;6.430;2023-07-13T12:50:16;0.30;;;0.20;;
55435;SDS011;41307;53.142;6.430;2023-07-13T12:52:50;1.55;;;0.32;;
55435;SDS011;41307;53.142;6.430;2023-07-13T12:55:21;0.73;;;0.30;;
55435;SDS011;41307;53.142;6.430;2023-07-13T12:57:52;0.20;;;0.20;;
55435;SDS011;41307;53.142;6.430;2023-07-13T13:00:25;0.80;;;0.25;;
55435;SDS011;41307;53.142;6.430;2023-07-13T13:03:03;0.10;;;0.10;;
55435;SDS011;41307;53.142;6.430;2023-07-13T13:05:31;2.08;;;0.40;;
55435;SDS011;41307;53.142;6.430;2023-07-13T13:08:01;0.80;;;0.28;;
55435;SDS011;41307;53.142;6.430;2023-07-13T13:10:27;1.38;;;0.25;;
55435;SDS011;41307;53.142;6.430;2023-07-13T13:12:57;0.22;;;0.20;;
55435;SDS011;41307;53.142;6.430;2023-07-13T13:15:22;1.15;;;0.30;;
55435;SDS011;41307;53.142;6.430;2023-07-13T13:17:48;0.85;;;0.28;;
55435;SDS011;41307;53.142;6.430;2023-07-13T13:20:15;1.15;;;0.40;;
55435;SDS011;41307;53.142;6.430;2023-07-13T13:22:43;0.82;;;0.30;;
55435;SDS011;41307;53.142;6.430;2023-07-13T13:25:10;1.08;;;0.20;;
55435;SDS011;41307;53.142;6.430;2023-07-13T13:27:41;0.40;;;0.10;;
55435;SDS011;41307;53.142;6.430;2023-07-13T13:30:13;0.60;;;0.20;;
55435;SDS011;41307;53.142;6.430;2023-07-13T13:32:41;0.65;;;0.30;;
55435;SDS011;41307;53.142;6.430;2023-07-13T13:35:12;1.80;;;0.50;;
55435;SDS011;41307;53.142;6.430;2023-07-13T13:37:39;0.30;;;0.22;;
55435;SDS011;41307;53.142;6.430;2023-07-13T13:40:19;0.43;;;0.20;;
55435;SDS011;41307;53.142;6.430;2023-07-13T13:45:19;0.55;;;0.30;;
55435;SDS011;41307;53.142;6.430;2023-07-13T13:47:46;1.60;;;0.30;;
55435;SDS011;41307;53.142;6.430;2023-07-13T13:50:17;1.40;;;0.52;;
55435;SDS011;41307;53.142;6.430;2023-07-13T13:52:47;1.38;;;0.40;;
55435;SDS011;41307;53.142;6.430;2023-07-13T13:55:17;1.50;;;0.30;;
55435;SDS011;41307;53.142;6.430;2023-07-13T13:57:45;2.45;;;0.50;;
55435;SDS011;41307;53.142;6.430;2023-07-13T14:00:12;2.33;;;0.47;;
55435;SDS011;41307;53.142;6.430;2023-07-13T14:02:44;0.75;;;0.30;;
55435;SDS011;41307;53.142;6.430;2023-07-13T14:05:21;0.60;;;0.28;;
55435;SDS011;41307;53.142;6.430;2023-07-13T14:07:48;0.70;;;0.20;;
55435;SDS011;41307;53.142;6.430;2023-07-13T14:10:16;2.10;;;0.70;;
55435;SDS011;41307;53.142;6.430;2023-07-13T14:12:47;0.52;;;0.30;;
55435;SDS011;41307;53.142;6.430;2023-07-13T14:15:23;1.57;;;0.43;;
55435;SDS011;41307;53.142;6.430;2023-07-13T14:17:52;1.20;;;0.40;;
55435;SDS011;41307;53.142;6.430;2023-07-13T14:20:20;0.38;;;0.30;;
55435;SDS011;41307;53.142;6.430;2023-07-13T14:22:49;0.98;;;0.40;;
55435;SDS011;41307;53.142;6.430;2023-07-13T14:25:15;0.10;;;0.10;;
55435;SDS011;41307;53.142;6.430;2023-07-13T14:27:42;0.55;;;0.20;;
55435;SDS011;41307;53.142;6.430;2023-07-13T14:30:12;0.73;;;0.40;;
55435;SDS011;41307;53.142;6.430;2023-07-13T14:32:40;1.88;;;0.40;;
55435;SDS011;41307;53.142;6.430;2023-07-13T14:35:07;1.17;;;0.45;;
55435;SDS011;41307;53.142;6.430;2023-07-13T14:37:37;1.13;;;0.40;;
55435;SDS011;41307;53.142;6.430;2023-07-13T14:40:14;0.70;;;0.25;;
55435;SDS011;41307;53.142;6.430;2023-07-13T14:42:41;0.65;;;0.28;;
55435;SDS011;41307;53.142;6.430;2023-07-13T14:45:16;0.85;;;0.38;;
55435;SDS011;41307;53.142;6.430;2023-07-13T14:47:44;3.13;;;0.30;;
55435;SDS011;41307;53.142;6.430;2023-07-13T14:50:30;2.72;;;0.60;;
55435;SDS011;41307;53.142;6.430;2023-07-13T14:52:57;1.73;;;0.30;;
55435;SDS011;41307;53.142;6.430;2023-07-13T14:55:23;0.65;;;0.40;;
55435;SDS011;41307;53.142;6.430;2023-07-13T14:57:51;1.92;;;0.38;;
55435;SDS011;41307;53.142;6.430;2023-07-13T15:00:18;1.05;;;0.30;;
55435;SDS011;41307;53.142;6.430;2023-07-13T15:02:47;2.05;;;0.40;;
55435;SDS011;41307;53.142;6.430;2023-07-13T15:05:17;1.42;;;0.60;;
55435;SDS011;41307;53.142;6.430;2023-07-13T15:07:46;2.17;;;0.52;;
55435;SDS011;41307;53.142;6.430;2023-07-13T15:10:20;2.10;;;0.50;;
55435;SDS011;41307;53.142;6.430;2023-07-13T15:12:46;2.67;;;0.57;;
55435;SDS011;41307;53.142;6.430;2023-07-13T15:15:13;0.60;;;0.32;;
55435;SDS011;41307;53.142;6.430;2023-07-13T15:17:43;1.98;;;0.30;;
55435;SDS011;41307;53.142;6.430;2023-07-13T15:20:27;2.70;;;0.30;;
55435;SDS011;41307;53.142;6.430;2023-07-13T15:22:55;1.35;;;0.40;;
55435;SDS011;41307;53.142;6.430;2023-07-13T15:25:25;1.50;;;0.30;;
55435;SDS011;41307;53.142;6.430;2023-07-13T15:27:52;0.85;;;0.32;;
55435;SDS011;41307;53.142;6.430;2023-07-13T15:30:19;1.00;;;0.50;;
55435;SDS011;41307;53.142;6.430;2023-07-13T15:32:46;2.53;;;0.40;;